Tropical Cyclones
[Index]
Main Index Home Page Stock Weather Photos Extreme Storms Discussion Storm News and Storm Chasing Reports Tropical Cyclones / Hurricanes / Typhoons Weather Data and Links Wild Fires / Bushfires Weather Observation Techniques Weather Picture Catalogue Tornado Pictures and Reports Stock Video Footage and DVDs for sale
Season 2001-2002 Tropical Cyclone IKALA Track Map
Season 2001-2002 Summaries: [BoM-AU] [JTWC-AU] [JTWC-SIO] [JTWC-SPAC] [JTWC-SH]
<<- Previous TC | JTWC 2001-2002 Season | Next TC ->>

click for intensity scale information  Lat/long Grid: Show Hide

 Date Labels: Show Hide

Joint Typhoon Warning Centre Cyclone Data

Name: IKALA

22 Mar 2002 12:00 UTC to 29 Mar 2002 06:00 UTC

    date/time    lat    long     hPa   cat  kts
2002-03-22 12    8.2    81.4    1002         25          
2002-03-22 18    8.2    80.5    1002         25          
2002-03-23 00    7.9    79.5    1000         30          
2002-03-23 06    8.4    78.6    1000         30          
2002-03-23 12    9.1    78.1    1000         30          
2002-03-23 18    9.8    77.5    1002         25          
2002-03-24 00   10.2    76.9    1000         30          
2002-03-24 06   10.6    76.1    1000         30          
2002-03-24 12   10.9    75.3     997         35          
2002-03-24 18   11.1    74.6     994    1    40          
2002-03-25 00   11.3    73.9     994    1    40          
2002-03-25 06   11.5    73.2     994    1    40          
2002-03-25 12   11.8    72.9     991    1    45          
2002-03-25 18   12.2    73.0     984    2    55          
2002-03-26 00   12.7    73.2     980    2    60          
2002-03-26 06   13.5    73.7     976    2    65          
2002-03-26 12   14.3    74.2     963    3    80          
2002-03-26 18   15.1    74.6     949    3    95          
2002-03-27 00   15.6    74.9     944    4   100          
2002-03-27 06   16.3    75.5     938    4   105          
2002-03-27 12   17.0    76.1     933    4   110          
2002-03-27 18   17.7    76.8     938    4   105          
2002-03-28 00   18.3    77.6     954    3    90          
2002-03-28 06   18.9    78.4     980    2    60          
2002-03-28 12   19.5    79.3     987    1    50          
2002-03-28 18   20.2    80.3     991    1    45          
2002-03-29 00   20.8    81.4     997         35          
2002-03-29 06   21.3    82.7    1002         25          
Winds are 1-min average.

Tropical cyclone tracks developed by Michael Bath using data from the Joint Typhoon Warning Centre Best Tracks and Google Maps.


[Australian Severe Weather index] [Copyright Notice] [Email Contacts] [Search This Site] [Privacy Policy]
Document: tropical_cyclone_ikala.htm Updated: 28 June 2017